createdAt,value
2023-03-26T00:00:50.003Z,999.74
2023-03-26T00:01:50.077Z,999.74
2023-03-26T00:02:50.026Z,999.78
2023-03-26T00:03:49.968Z,999.73
2023-03-26T00:04:49.975Z,999.74
2023-03-26T00:05:49.995Z,999.74
2023-03-26T00:06:49.950Z,999.79
2023-03-26T00:07:49.916Z,999.80
2023-03-26T00:08:49.921Z,999.78
2023-03-26T00:09:49.902Z,999.82
2023-03-26T00:10:49.907Z,999.85
2023-03-26T00:11:49.901Z,999.87
2023-03-26T00:12:49.882Z,999.82
2023-03-26T00:13:49.866Z,999.84
2023-03-26T00:14:49.860Z,999.86
2023-03-26T00:15:49.837Z,999.88
2023-03-26T00:16:49.885Z,999.87
2023-03-26T00:17:51.158Z,999.87
2023-03-26T00:18:49.848Z,999.91
2023-03-26T00:19:49.785Z,999.91
2023-03-26T00:20:49.804Z,999.92
2023-03-26T00:21:49.773Z,999.92
2023-03-26T00:22:49.781Z,999.96
2023-03-26T00:23:49.789Z,999.95
2023-03-26T00:24:49.754Z,999.98
2023-03-26T00:25:49.728Z,999.95
2023-03-26T00:26:49.735Z,1000.01
2023-03-26T00:27:49.718Z,1000.03
2023-03-26T00:28:49.730Z,1000.03
2023-03-26T00:29:49.764Z,1000.04
2023-03-26T00:30:49.741Z,1000.04
2023-03-26T00:31:49.689Z,1000.03
2023-03-26T00:32:53.477Z,1000.01
2023-03-26T00:33:49.672Z,1000.05
2023-03-26T00:34:49.647Z,1000.02
2023-03-26T00:35:49.795Z,1000.03
2023-03-26T00:36:49.616Z,1000.05
2023-03-26T00:37:49.656Z,1000.02
2023-03-26T00:38:49.605Z,1000.03
2023-03-26T00:39:49.606Z,1000.02
2023-03-26T00:40:49.575Z,1000.00
2023-03-26T00:41:49.610Z,1000.00
2023-03-26T00:42:49.564Z,1000.00
2023-03-26T00:43:49.569Z,1000.04
2023-03-26T00:44:49.532Z,1000.01
2023-03-26T00:45:49.583Z,1000.02
2023-03-26T00:46:49.516Z,1000.00
2023-03-26T00:47:49.607Z,999.98
2023-03-26T00:48:49.498Z,999.98
2023-03-26T00:49:49.506Z,999.99
2023-03-26T00:50:49.493Z,999.95
2023-03-26T00:51:49.504Z,999.94
2023-03-26T00:52:49.471Z,999.92
2023-03-26T00:53:49.509Z,999.90
2023-03-26T00:54:49.442Z,999.90
2023-03-26T00:55:49.465Z,999.91
2023-03-26T00:56:49.436Z,999.88
2023-03-26T00:57:49.425Z,999.87
2023-03-26T00:58:49.398Z,999.89
2023-03-26T00:59:49.431Z,999.85
2023-03-26T01:00:49.379Z,999.84
2023-03-26T01:01:49.412Z,999.83
2023-03-26T01:02:49.400Z,999.79
2023-03-26T01:04:04.788Z,999.80
2023-03-26T01:04:49.400Z,999.80
2023-03-26T01:05:49.365Z,999.79
2023-03-26T01:06:49.305Z,999.77
2023-03-26T01:07:49.326Z,999.77
2023-03-26T01:08:49.296Z,999.77
2023-03-26T01:09:49.311Z,999.76
2023-03-26T01:10:49.272Z,999.78
2023-03-26T01:11:49.298Z,999.78
2023-03-26T01:12:49.240Z,999.76
2023-03-26T01:13:49.256Z,999.72
2023-03-26T01:14:50.602Z,999.71
2023-03-26T01:15:49.262Z,999.69
2023-03-26T01:16:49.206Z,999.71
2023-03-26T01:17:49.284Z,999.70
2023-03-26T01:18:49.187Z,999.68
2023-03-26T01:19:49.193Z,999.68
2023-03-26T01:20:49.171Z,999.66
2023-03-26T01:21:49.173Z,999.65
2023-03-26T01:22:49.134Z,999.66
2023-03-26T01:23:49.171Z,999.66
2023-03-26T01:24:49.143Z,999.65
2023-03-26T01:25:49.132Z,999.65
2023-03-26T01:26:49.096Z,999.66
2023-03-26T01:27:49.118Z,999.66
2023-03-26T01:28:49.075Z,999.65
2023-03-26T01:29:49.105Z,999.63
2023-03-26T01:30:49.056Z,999.62
2023-03-26T01:31:49.072Z,999.60
2023-03-26T01:32:49.128Z,999.60
2023-03-26T01:33:49.100Z,999.58
2023-03-26T01:34:49.014Z,999.58
2023-03-26T01:35:49.106Z,999.57
2023-03-26T01:36:49.004Z,999.56
2023-03-26T01:37:49.026Z,999.56
2023-03-26T01:38:48.974Z,999.57
2023-03-26T01:39:48.987Z,999.54
2023-03-26T01:40:48.964Z,999.53
2023-03-26T01:41:48.991Z,999.53
2023-03-26T01:42:48.925Z,999.51
2023-03-26T01:43:48.946Z,999.51
2023-03-26T01:44:48.907Z,999.50
2023-03-26T01:45:48.958Z,999.47
2023-03-26T01:46:48.908Z,999.48
2023-03-26T01:47:48.981Z,999.46
2023-03-26T01:48:48.889Z,999.42
2023-03-26T01:49:48.880Z,999.41
2023-03-26T01:50:48.860Z,999.41
2023-03-26T01:51:48.863Z,999.41
2023-03-26T01:52:48.844Z,999.41
2023-03-26T01:53:48.859Z,999.40
2023-03-26T01:54:48.816Z,999.37
2023-03-26T01:55:48.826Z,999.34
2023-03-26T01:56:48.813Z,999.35
2023-03-26T01:57:48.800Z,999.34
2023-03-26T01:58:48.776Z,999.35
2023-03-26T01:59:48.808Z,999.36
2023-03-26T02:00:48.761Z,999.36
2023-03-26T02:01:48.826Z,999.36
2023-03-26T02:02:48.856Z,999.34
2023-03-26T02:03:48.831Z,999.33
2023-03-26T02:04:48.703Z,999.34
2023-03-26T02:05:48.755Z,999.33
2023-03-26T02:06:48.688Z,999.32
2023-03-26T02:07:48.705Z,999.30
2023-03-26T02:08:48.666Z,999.29
2023-03-26T02:09:48.678Z,999.32
2023-03-26T02:10:48.641Z,999.28
2023-03-26T02:11:48.684Z,999.29
2023-03-26T02:12:48.634Z,999.26
2023-03-26T02:13:48.629Z,999.27
2023-03-26T02:14:48.608Z,999.27
2023-03-26T02:15:48.634Z,999.25
2023-03-26T02:16:48.583Z,999.26
2023-03-26T02:17:48.790Z,999.23
2023-03-26T02:18:48.570Z,999.21
2023-03-26T02:19:48.584Z,999.19
2023-03-26T02:20:48.536Z,999.19
2023-03-26T02:21:48.552Z,999.18
2023-03-26T02:22:48.515Z,999.16
2023-03-26T02:23:48.550Z,999.14
2023-03-26T02:24:48.516Z,999.14
2023-03-26T02:25:48.525Z,999.14
2023-03-26T02:26:48.480Z,999.12
2023-03-26T02:27:48.493Z,999.11
2023-03-26T02:28:48.458Z,999.09
2023-03-26T02:29:48.522Z,999.06
2023-03-26T02:30:48.431Z,999.04
2023-03-26T02:31:48.577Z,999.02
2023-03-26T02:32:48.463Z,999.00
2023-03-26T02:33:48.434Z,998.99
2023-03-26T02:34:48.394Z,998.98
2023-03-26T02:35:48.484Z,998.95
2023-03-26T02:36:48.422Z,998.93
2023-03-26T02:37:48.416Z,998.92
2023-03-26T02:38:48.360Z,998.91
2023-03-26T02:39:48.355Z,998.90
2023-03-26T02:40:48.339Z,998.90
2023-03-26T02:41:48.369Z,998.91
2023-03-26T02:42:48.320Z,998.91
2023-03-26T02:43:48.345Z,998.93
2023-03-26T02:44:48.283Z,998.91
2023-03-26T02:45:48.368Z,998.89
2023-03-26T02:46:48.263Z,998.85
2023-03-26T02:47:48.336Z,998.82
2023-03-26T02:48:48.239Z,998.83
2023-03-26T02:49:48.257Z,998.87
2023-03-26T02:50:48.229Z,998.83
2023-03-26T02:51:48.236Z,998.81
2023-03-26T02:52:48.201Z,998.80
2023-03-26T02:53:48.259Z,998.80
2023-03-26T02:54:48.177Z,998.76
2023-03-26T02:55:48.202Z,998.76
2023-03-26T02:56:48.231Z,998.74
2023-03-26T02:57:48.178Z,998.74
2023-03-26T02:58:48.145Z,998.71
2023-03-26T02:59:48.180Z,998.68
2023-03-26T03:00:48.150Z,998.65
2023-03-26T03:01:48.140Z,998.65
2023-03-26T03:02:48.483Z,998.65
2023-03-26T03:03:48.114Z,998.65
2023-03-26T03:04:48.085Z,998.66
2023-03-26T03:05:48.122Z,998.66
2023-03-26T03:06:48.056Z,998.65
2023-03-26T03:07:48.071Z,998.66
2023-03-26T03:08:48.057Z,998.67
2023-03-26T03:09:48.046Z,998.67
2023-03-26T03:10:48.018Z,998.66
2023-03-26T03:11:48.044Z,998.66
2023-03-26T03:12:48.001Z,998.66
2023-03-26T03:13:48.014Z,998.66
2023-03-26T03:14:47.972Z,998.64
2023-03-26T03:15:47.982Z,998.65
2023-03-26T03:16:48.023Z,998.63
2023-03-26T03:17:48.040Z,998.63
2023-03-26T03:18:47.969Z,998.62
2023-03-26T03:19:47.953Z,998.60
2023-03-26T03:20:47.921Z,998.59
2023-03-26T03:21:47.928Z,998.61
2023-03-26T03:22:47.902Z,998.61
2023-03-26T03:23:47.949Z,998.62
2023-03-26T03:24:48.011Z,998.64
2023-03-26T03:25:47.902Z,998.65
2023-03-26T03:26:47.963Z,998.62
2023-03-26T03:27:47.873Z,998.61
2023-03-26T03:28:47.843Z,998.59
2023-03-26T03:29:47.864Z,998.57
2023-03-26T03:30:47.902Z,998.56
2023-03-26T03:31:47.828Z,998.55
2023-03-26T03:32:47.862Z,998.55
2023-03-26T03:33:47.852Z,998.53
2023-03-26T03:34:47.788Z,998.55
2023-03-26T03:35:47.850Z,998.53
2023-03-26T03:36:47.758Z,998.52
2023-03-26T03:37:47.768Z,998.51
2023-03-26T03:38:47.731Z,998.50
2023-03-26T03:39:47.758Z,998.48
2023-03-26T03:40:47.752Z,998.47
2023-03-26T03:41:47.761Z,998.44
2023-03-26T03:42:47.683Z,998.44
2023-03-26T03:43:47.709Z,998.45
2023-03-26T03:44:47.690Z,998.45
2023-03-26T03:45:47.698Z,998.44
2023-03-26T03:46:47.684Z,998.43
2023-03-26T03:47:47.735Z,998.42
2023-03-26T03:48:47.657Z,998.42
2023-03-26T03:49:47.643Z,998.39
2023-03-26T03:50:47.633Z,998.38
2023-03-26T03:51:47.613Z,998.35
2023-03-26T03:52:47.613Z,998.32
2023-03-26T03:53:47.625Z,998.32
2023-03-26T03:54:47.600Z,998.30
2023-03-26T03:55:47.555Z,998.28
2023-03-26T03:56:47.572Z,998.27
2023-03-26T03:57:47.547Z,998.26
2023-03-26T03:58:47.660Z,998.25
2023-03-26T03:59:48.580Z,998.25
2023-03-26T04:00:47.528Z,998.24
2023-03-26T04:01:47.497Z,998.23
2023-03-26T04:02:47.575Z,998.22
2023-03-26T04:03:47.651Z,998.21
2023-03-26T04:04:47.487Z,998.20
2023-03-26T04:05:47.474Z,998.17
2023-03-26T04:06:47.466Z,998.17
2023-03-26T04:07:47.433Z,998.15
2023-03-26T04:08:47.454Z,998.14
2023-03-26T04:09:47.415Z,998.13
2023-03-26T04:10:47.446Z,998.12
2023-03-26T04:11:47.420Z,998.13
2023-03-26T04:12:47.406Z,998.10
2023-03-26T04:13:47.385Z,998.11
2023-03-26T04:14:47.421Z,998.09
2023-03-26T04:15:47.423Z,998.09
2023-03-26T04:16:47.367Z,998.08
2023-03-26T04:17:47.443Z,998.08
2023-03-26T04:18:47.361Z,998.05
2023-03-26T04:19:47.333Z,998.06
2023-03-26T04:20:47.336Z,998.05
2023-03-26T04:21:47.292Z,998.04
2023-03-26T04:22:47.308Z,998.04
2023-03-26T04:23:47.288Z,998.04
2023-03-26T04:24:47.281Z,998.03
2023-03-26T04:25:47.246Z,998.01
2023-03-26T04:26:47.266Z,998.01
2023-03-26T04:27:47.221Z,997.99
2023-03-26T04:28:47.248Z,998.00
2023-03-26T04:29:47.234Z,998.00
2023-03-26T04:30:47.214Z,997.99
2023-03-26T04:31:47.311Z,997.97
2023-03-26T04:32:47.258Z,997.95
2023-03-26T04:33:47.171Z,997.92
2023-03-26T04:34:47.171Z,997.92
2023-03-26T04:35:47.199Z,997.92
2023-03-26T04:36:47.161Z,997.90
2023-03-26T04:37:47.149Z,997.90
2023-03-26T04:38:47.135Z,997.88
2023-03-26T04:39:47.105Z,997.87
2023-03-26T04:40:47.112Z,997.86
2023-03-26T04:41:47.101Z,997.86
2023-03-26T04:42:47.089Z,997.85
2023-03-26T04:43:47.107Z,997.84
2023-03-26T04:44:47.072Z,997.84
2023-03-26T04:45:47.073Z,997.83
2023-03-26T04:46:47.049Z,997.83
2023-03-26T04:47:47.121Z,997.82
2023-03-26T04:48:47.004Z,997.82
2023-03-26T04:49:47.016Z,997.81
2023-03-26T04:50:46.985Z,997.81
2023-03-26T04:51:47.064Z,997.82
2023-03-26T04:52:46.969Z,997.81
2023-03-26T04:53:46.996Z,997.81
2023-03-26T04:54:46.951Z,997.80
2023-03-26T04:55:46.966Z,997.78
2023-03-26T04:56:47.014Z,997.77
2023-03-26T04:57:46.943Z,997.76
2023-03-26T04:58:46.903Z,997.74
2023-03-26T04:59:46.939Z,997.72
2023-03-26T05:00:46.940Z,997.70
2023-03-26T05:01:46.894Z,997.68
2023-03-26T05:02:46.893Z,997.67
2023-03-26T05:03:46.900Z,997.66
2023-03-26T05:04:46.837Z,997.65
2023-03-26T05:05:46.880Z,997.63
2023-03-26T05:06:46.834Z,997.63
2023-03-26T05:07:46.859Z,997.62
2023-03-26T05:08:46.803Z,997.61
2023-03-26T05:09:46.855Z,997.60
2023-03-26T05:10:46.782Z,997.59
2023-03-26T05:11:46.806Z,997.58
2023-03-26T05:12:46.755Z,997.57
2023-03-26T05:13:46.782Z,997.55
2023-03-26T05:14:46.733Z,997.54
2023-03-26T05:15:46.752Z,997.53
2023-03-26T05:16:46.919Z,997.52
2023-03-26T05:17:46.819Z,997.51
2023-03-26T05:18:46.695Z,997.50
2023-03-26T05:19:46.711Z,997.50
2023-03-26T05:20:46.684Z,997.48
2023-03-26T05:21:46.688Z,997.47
2023-03-26T05:22:46.657Z,997.45
2023-03-26T05:23:46.698Z,997.44
2023-03-26T05:24:46.633Z,997.43
2023-03-26T05:25:46.639Z,997.42
2023-03-26T05:26:46.623Z,997.42
2023-03-26T05:27:46.630Z,997.42
2023-03-26T05:28:46.595Z,997.40
2023-03-26T05:29:46.616Z,997.39
2023-03-26T05:30:46.567Z,997.38
2023-03-26T05:31:46.609Z,997.36
2023-03-26T05:32:46.590Z,997.35
2023-03-26T05:33:46.638Z,997.33
2023-03-26T05:34:46.527Z,997.32
2023-03-26T05:35:46.573Z,997.30
2023-03-26T05:36:46.505Z,997.29
2023-03-26T05:37:46.528Z,997.27
2023-03-26T05:38:46.485Z,997.26
2023-03-26T05:39:46.513Z,997.25
2023-03-26T05:40:46.485Z,997.24
2023-03-26T05:41:46.511Z,997.22
2023-03-26T05:42:46.444Z,997.21
2023-03-26T05:43:46.465Z,997.20
2023-03-26T05:44:46.416Z,997.20
2023-03-26T05:45:46.457Z,997.19
2023-03-26T05:46:46.415Z,997.18
2023-03-26T05:47:46.454Z,997.17
2023-03-26T05:48:46.381Z,997.16
2023-03-26T05:49:46.403Z,997.14
2023-03-26T05:50:46.356Z,997.12
2023-03-26T05:51:46.371Z,997.11
2023-03-26T05:52:46.346Z,997.10
2023-03-26T05:53:46.381Z,997.08
2023-03-26T05:54:46.332Z,997.07
2023-03-26T05:55:46.337Z,997.05
2023-03-26T05:56:46.316Z,997.04
2023-03-26T05:57:46.308Z,997.02
2023-03-26T05:58:46.279Z,997.01
2023-03-26T05:59:46.312Z,997.01
2023-03-26T06:00:46.249Z,996.99
2023-03-26T06:01:46.296Z,996.97
2023-03-26T06:02:46.290Z,996.95
2023-03-26T06:03:46.308Z,996.92
2023-03-26T06:04:46.330Z,996.89
2023-03-26T06:05:46.249Z,996.87
2023-03-26T06:06:46.192Z,996.86
2023-03-26T06:07:46.207Z,996.85
2023-03-26T06:08:46.175Z,996.84
2023-03-26T06:09:46.184Z,996.83
2023-03-26T06:10:46.158Z,996.82
2023-03-26T06:11:46.184Z,996.81
2023-03-26T06:12:46.128Z,996.79
2023-03-26T06:13:46.149Z,996.77
2023-03-26T06:14:46.114Z,996.76
2023-03-26T06:15:46.185Z,996.77
2023-03-26T06:16:46.097Z,996.78
2023-03-26T06:17:46.229Z,996.77
2023-03-26T06:18:46.081Z,996.76
2023-03-26T06:19:46.085Z,996.74
2023-03-26T06:20:46.044Z,996.72
2023-03-26T06:21:46.072Z,996.71
2023-03-26T06:22:46.027Z,996.70
2023-03-26T06:23:46.050Z,996.70
2023-03-26T06:24:46.005Z,996.71
2023-03-26T06:25:46.012Z,996.71
2023-03-26T06:26:45.984Z,996.71
2023-03-26T06:27:46.012Z,996.71
2023-03-26T06:28:45.970Z,996.70
2023-03-26T06:29:46.028Z,996.70
2023-03-26T06:30:45.945Z,996.69
2023-03-26T06:31:45.969Z,996.68
2023-03-26T06:32:45.943Z,996.67
2023-03-26T06:33:45.952Z,996.67
2023-03-26T06:34:45.897Z,996.67
2023-03-26T06:35:45.963Z,996.67
2023-03-26T06:36:45.884Z,996.66
2023-03-26T06:37:45.890Z,996.65
2023-03-26T06:38:45.871Z,996.64
2023-03-26T06:39:45.895Z,996.64
2023-03-26T06:40:45.853Z,996.63
2023-03-26T06:41:45.875Z,996.63
2023-03-26T06:43:08.818Z,996.63
2023-03-26T06:43:45.834Z,996.62
2023-03-26T06:44:45.803Z,996.61
2023-03-26T06:45:45.810Z,996.60
2023-03-26T06:46:45.789Z,996.58
2023-03-26T06:47:45.890Z,996.58
2023-03-26T06:48:45.758Z,996.57
2023-03-26T06:49:45.767Z,996.57
2023-03-26T06:50:45.736Z,996.56
2023-03-26T06:51:45.763Z,996.55
2023-03-26T06:52:45.714Z,996.54
2023-03-26T06:53:45.749Z,996.53
2023-03-26T06:54:45.693Z,996.53
2023-03-26T06:55:45.706Z,996.53
2023-03-26T06:56:45.705Z,996.52
2023-03-26T06:57:45.683Z,996.51
2023-03-26T06:58:45.651Z,996.50
2023-03-26T06:59:45.690Z,996.48
2023-03-26T07:00:45.660Z,996.47
2023-03-26T07:01:46.798Z,996.45
2023-03-26T07:02:45.636Z,996.44
2023-03-26T07:03:45.675Z,996.43
2023-03-26T07:04:45.596Z,996.42
2023-03-26T07:05:45.625Z,996.41
2023-03-26T07:06:45.577Z,996.40
2023-03-26T07:07:46.463Z,996.40
2023-03-26T07:08:45.556Z,996.39
2023-03-26T07:09:45.562Z,996.38
2023-03-26T07:10:45.526Z,996.37
2023-03-26T07:11:45.559Z,996.37
2023-03-26T07:12:45.508Z,996.36
2023-03-26T07:13:45.559Z,996.36
2023-03-26T07:14:45.486Z,996.36
2023-03-26T07:15:45.502Z,996.35
2023-03-26T07:16:45.511Z,996.35
2023-03-26T07:17:45.553Z,996.34
2023-03-26T07:18:45.449Z,996.34
2023-03-26T07:19:45.458Z,996.34
2023-03-26T07:20:45.422Z,996.33
2023-03-26T07:21:45.439Z,996.33
2023-03-26T07:22:45.404Z,996.32
2023-03-26T07:23:45.446Z,996.31
2023-03-26T07:24:45.390Z,996.31
2023-03-26T07:25:45.409Z,996.30
2023-03-26T07:26:45.489Z,996.30
2023-03-26T07:27:45.376Z,996.29
2023-03-26T07:29:04.839Z,996.28
2023-03-26T07:29:45.393Z,996.27
2023-03-26T07:30:45.322Z,996.26
2023-03-26T07:31:45.387Z,996.26
2023-03-26T07:32:45.362Z,996.26
2023-03-26T07:33:45.317Z,996.26
2023-03-26T07:34:45.278Z,996.25
2023-03-26T07:35:45.325Z,996.24
2023-03-26T07:36:45.280Z,996.23
2023-03-26T07:37:45.277Z,996.22
2023-03-26T07:38:45.236Z,996.21
2023-03-26T07:39:45.256Z,996.21
2023-03-26T07:40:45.226Z,996.20
2023-03-26T07:41:45.259Z,996.18
2023-03-26T07:42:45.195Z,996.17
2023-03-26T07:43:45.212Z,996.16
2023-03-26T07:44:45.177Z,996.15
2023-03-26T07:45:45.231Z,996.14
2023-03-26T07:46:45.157Z,996.14
2023-03-26T07:47:45.271Z,996.13
2023-03-26T07:48:45.132Z,996.12
2023-03-26T07:49:45.144Z,996.11
2023-03-26T07:50:45.112Z,996.10
2023-03-26T07:51:45.126Z,996.08
2023-03-26T07:52:45.087Z,996.07
2023-03-26T07:53:45.126Z,996.06
2023-03-26T07:54:45.073Z,996.05
2023-03-26T07:55:45.082Z,996.03
2023-03-26T07:56:45.113Z,996.02
2023-03-26T07:57:45.080Z,996.02
2023-03-26T07:58:45.025Z,996.01
2023-03-26T07:59:45.072Z,996.01
2023-03-26T08:00:45.008Z,996.01
2023-03-26T08:01:45.015Z,996.01
2023-03-26T08:02:45.049Z,996.00
2023-03-26T08:03:45.062Z,996.00
2023-03-26T08:04:45.044Z,996.00
2023-03-26T08:05:45.009Z,995.99
2023-03-26T08:06:44.950Z,995.98
2023-03-26T08:07:44.964Z,995.97
2023-03-26T08:08:44.952Z,995.96
2023-03-26T08:09:44.937Z,995.96
2023-03-26T08:10:44.902Z,995.96
2023-03-26T08:11:44.947Z,995.95
2023-03-26T08:12:44.883Z,995.94
2023-03-26T08:13:44.894Z,995.93
2023-03-26T08:14:44.872Z,995.93
2023-03-26T08:15:44.934Z,995.92
2023-03-26T08:16:44.844Z,995.91
2023-03-26T08:17:44.920Z,995.91
2023-03-26T08:18:44.834Z,995.90
2023-03-26T08:19:44.899Z,995.89
2023-03-26T08:20:44.801Z,995.90
2023-03-26T08:21:44.812Z,995.90
2023-03-26T08:22:44.781Z,995.89
2023-03-26T08:23:50.386Z,995.88
2023-03-26T08:24:44.761Z,995.90
2023-03-26T08:25:44.778Z,995.88
2023-03-26T08:26:44.736Z,995.90
2023-03-26T08:27:44.753Z,995.88
2023-03-26T08:28:44.727Z,995.88
2023-03-26T08:29:44.757Z,995.87
2023-03-26T08:30:44.728Z,995.85
2023-03-26T08:31:44.719Z,995.84
2023-03-26T08:32:44.690Z,995.84
2023-03-26T08:33:44.685Z,995.83
2023-03-26T08:34:44.663Z,995.83
2023-03-26T08:35:44.763Z,995.82
2023-03-26T08:36:44.632Z,995.83
2023-03-26T08:37:44.666Z,995.82
2023-03-26T08:38:46.837Z,995.81
2023-03-26T08:39:44.622Z,995.81
2023-03-26T08:40:44.590Z,995.79
2023-03-26T08:41:44.645Z,995.78
2023-03-26T08:42:44.571Z,995.78
2023-03-26T08:43:44.582Z,995.76
2023-03-26T08:44:44.551Z,995.75
2023-03-26T08:45:44.565Z,995.75
2023-03-26T08:46:44.565Z,995.73
2023-03-26T08:47:44.635Z,995.72
2023-03-26T08:48:44.503Z,995.70
2023-03-26T08:49:44.530Z,995.69
2023-03-26T08:50:44.498Z,995.68
2023-03-26T08:51:44.502Z,995.67
2023-03-26T08:52:44.464Z,995.66
2023-03-26T08:53:44.517Z,995.67
2023-03-26T08:54:44.446Z,995.66
2023-03-26T08:55:44.459Z,995.66
2023-03-26T08:56:44.459Z,995.65
2023-03-26T08:57:44.435Z,995.65
2023-03-26T08:58:44.406Z,995.65
2023-03-26T08:59:44.444Z,995.64
2023-03-26T09:00:44.386Z,995.64
2023-03-26T09:01:44.419Z,995.64
2023-03-26T09:02:44.399Z,995.64
2023-03-26T09:03:44.391Z,995.64
2023-03-26T09:04:44.373Z,995.63
2023-03-26T09:05:44.372Z,995.63
2023-03-26T09:06:44.345Z,995.63
2023-03-26T09:07:44.310Z,995.64
2023-03-26T09:08:54.489Z,995.63
2023-03-26T09:09:44.302Z,995.64
2023-03-26T09:10:44.301Z,995.63
2023-03-26T09:11:44.298Z,995.63
2023-03-26T09:12:44.285Z,995.63
2023-03-26T09:13:44.262Z,995.62
2023-03-26T09:14:44.264Z,995.61
2023-03-26T09:15:44.237Z,995.59
2023-03-26T09:16:44.304Z,995.59
2023-03-26T09:17:44.269Z,995.59
2023-03-26T09:18:44.228Z,995.58
2023-03-26T09:19:44.195Z,995.58
2023-03-26T09:20:44.202Z,995.57
2023-03-26T09:21:44.170Z,995.56
2023-03-26T09:22:44.174Z,995.57
2023-03-26T09:23:44.155Z,995.55
2023-03-26T09:24:44.160Z,995.55
2023-03-26T09:25:44.136Z,995.55
2023-03-26T09:26:44.151Z,995.54
2023-03-26T09:27:44.100Z,995.54
2023-03-26T09:28:44.129Z,995.53
2023-03-26T09:29:44.118Z,995.53
2023-03-26T09:30:44.094Z,995.53
2023-03-26T09:31:44.078Z,995.52
2023-03-26T09:32:44.097Z,995.52
2023-03-26T09:33:44.049Z,995.51
2023-03-26T09:34:44.054Z,995.51
2023-03-26T09:35:44.070Z,995.51
2023-03-26T09:36:44.030Z,995.50
2023-03-26T09:37:57.116Z,995.50
2023-03-26T09:38:44.029Z,995.50
2023-03-26T09:39:43.978Z,995.50
2023-03-26T09:40:44.030Z,995.49
2023-03-26T09:41:43.987Z,995.49
2023-03-26T09:42:43.983Z,995.49
2023-03-26T09:43:43.985Z,995.49
2023-03-26T09:44:43.981Z,995.49
2023-03-26T09:45:43.947Z,995.48
2023-03-26T09:46:45.587Z,995.48
2023-03-26T09:47:44.012Z,995.48
2023-03-26T09:48:43.924Z,995.47
2023-03-26T09:49:43.928Z,995.48
2023-03-26T09:50:43.891Z,995.47
2023-03-26T09:51:43.884Z,995.47
2023-03-26T09:52:43.883Z,995.47
2023-03-26T09:53:43.888Z,995.47
2023-03-26T09:54:43.865Z,995.47
2023-03-26T09:55:43.829Z,995.47
2023-03-26T09:56:43.899Z,995.47
2023-03-26T09:57:43.836Z,995.47
2023-03-26T09:58:43.829Z,995.47
2023-03-26T09:59:43.797Z,995.46
2023-03-26T10:00:43.818Z,995.46
2023-03-26T10:01:43.789Z,995.47
2023-03-26T10:02:46.067Z,995.47
2023-03-26T10:03:43.732Z,995.47
2023-03-26T10:04:43.793Z,995.48
2023-03-26T10:05:43.733Z,995.48
2023-03-26T10:06:43.718Z,995.48
2023-03-26T10:07:43.690Z,995.48
2023-03-26T10:08:43.697Z,995.48
2023-03-26T10:09:43.680Z,995.48
2023-03-26T10:10:43.683Z,995.48
2023-03-26T10:11:43.675Z,995.47
2023-03-26T10:12:43.664Z,995.48
2023-03-26T10:13:43.623Z,995.47
2023-03-26T10:14:43.646Z,995.47
2023-03-26T10:15:43.609Z,995.47
2023-03-26T10:16:43.660Z,995.47
2023-03-26T10:17:43.668Z,995.46
2023-03-26T10:18:43.593Z,995.46
2023-03-26T10:19:43.572Z,995.45
2023-03-26T10:20:43.572Z,995.45
2023-03-26T10:21:43.538Z,995.44
2023-03-26T10:22:43.571Z,995.44
2023-03-26T10:23:43.549Z,995.43
2023-03-26T10:24:43.532Z,995.42
2023-03-26T10:25:43.505Z,995.42
2023-03-26T10:27:10.295Z,995.41
2023-03-26T10:27:43.482Z,995.41
2023-03-26T10:28:43.486Z,995.41
2023-03-26T10:29:43.482Z,995.41
2023-03-26T10:30:43.500Z,995.40
2023-03-26T10:31:43.439Z,995.40
2023-03-26T10:32:43.465Z,995.40
2023-03-26T10:33:43.419Z,995.39
2023-03-26T10:34:43.429Z,995.39
2023-03-26T10:35:43.432Z,995.38
2023-03-26T10:36:43.404Z,995.37
2023-03-26T10:37:43.374Z,995.36
2023-03-26T10:38:43.383Z,995.35
2023-03-26T10:39:43.681Z,995.34
2023-03-26T10:40:43.365Z,995.34
2023-03-26T10:41:43.394Z,995.33
2023-03-26T10:42:43.383Z,995.33
2023-03-26T10:43:43.310Z,995.32
2023-03-26T10:44:43.335Z,995.31
2023-03-26T10:45:43.293Z,995.30
2023-03-26T10:46:43.296Z,995.30
2023-03-26T10:47:43.353Z,995.29
2023-03-26T10:48:43.281Z,995.29
2023-03-26T10:49:43.251Z,995.28
2023-03-26T10:50:43.315Z,995.28
2023-03-26T10:51:43.264Z,995.28
2023-03-26T10:52:43.234Z,995.27
2023-03-26T10:53:43.225Z,995.27
2023-03-26T10:54:43.239Z,995.26
2023-03-26T10:55:43.180Z,995.26
2023-03-26T10:56:43.211Z,995.25
2023-03-26T10:57:43.184Z,995.26
2023-03-26T10:58:48.469Z,995.25
2023-03-26T10:59:43.189Z,995.25
2023-03-26T11:00:43.157Z,995.25
2023-03-26T11:01:43.179Z,995.25
2023-03-26T11:02:43.261Z,995.25
2023-03-26T11:03:43.101Z,995.25
2023-03-26T11:04:43.139Z,995.25
2023-03-26T11:05:43.147Z,995.25
2023-03-26T11:06:43.102Z,995.25
2023-03-26T11:07:43.065Z,995.24
2023-03-26T11:08:43.082Z,995.24
2023-03-26T11:09:43.044Z,995.23
2023-03-26T11:10:43.074Z,995.23
2023-03-26T11:11:43.049Z,995.22
2023-03-26T11:12:43.045Z,995.22
2023-03-26T11:13:43.001Z,995.22
2023-03-26T11:14:43.019Z,995.21
2023-03-26T11:15:42.987Z,995.21
2023-03-26T11:16:42.992Z,995.22
2023-03-26T11:17:43.031Z,995.22
2023-03-26T11:18:43.004Z,995.22
2023-03-26T11:19:42.938Z,995.21
2023-03-26T11:20:42.955Z,995.21
2023-03-26T11:21:42.918Z,995.21
2023-03-26T11:22:42.961Z,995.21
2023-03-26T11:23:42.923Z,995.19
2023-03-26T11:24:42.917Z,995.19
2023-03-26T11:25:42.882Z,995.19
2023-03-26T11:26:42.889Z,995.18
2023-03-26T11:27:42.873Z,995.19
2023-03-26T11:28:49.654Z,995.18
2023-03-26T11:29:42.864Z,995.18
2023-03-26T11:30:42.844Z,995.17
2023-03-26T11:31:42.828Z,995.16
2023-03-26T11:32:42.856Z,995.16
2023-03-26T11:33:46.202Z,995.16
2023-03-26T11:34:42.835Z,995.15
2023-03-26T11:35:42.823Z,995.14
2023-03-26T11:36:42.782Z,995.15
2023-03-26T11:37:42.752Z,995.13
2023-03-26T11:38:42.765Z,995.13
2023-03-26T11:39:42.732Z,995.13
2023-03-26T11:40:42.749Z,995.12
2023-03-26T11:41:42.729Z,995.11
2023-03-26T11:42:42.727Z,995.10
2023-03-26T11:43:42.704Z,995.09
2023-03-26T11:44:42.703Z,995.09
2023-03-26T11:45:42.678Z,995.08
2023-03-26T11:46:42.772Z,995.08
2023-03-26T11:47:42.780Z,995.06
2023-03-26T11:48:42.660Z,995.06
2023-03-26T11:49:42.638Z,995.05
2023-03-26T11:50:42.656Z,995.05
2023-03-26T11:51:42.617Z,995.04
2023-03-26T11:52:42.621Z,995.03
2023-03-26T11:53:42.605Z,995.03
2023-03-26T11:54:42.601Z,995.02
2023-03-26T11:55:42.568Z,995.01
2023-03-26T11:57:06.089Z,995.01
2023-03-26T11:57:42.543Z,995.01
2023-03-26T11:58:42.559Z,995.00
2023-03-26T11:59:53.730Z,994.99
2023-03-26T12:00:42.532Z,994.98
2023-03-26T12:01:42.521Z,994.97
2023-03-26T12:02:42.602Z,994.96
2023-03-26T12:03:42.489Z,994.95
2023-03-26T12:04:42.546Z,994.95
2023-03-26T12:05:42.490Z,994.94
2023-03-26T12:06:42.462Z,994.92
2023-03-26T12:07:42.433Z,994.92
2023-03-26T12:08:42.451Z,994.91
2023-03-26T12:09:42.420Z,994.90
2023-03-26T12:10:42.426Z,994.90
2023-03-26T12:11:42.413Z,994.89
2023-03-26T12:12:42.405Z,994.88
2023-03-26T12:13:42.386Z,994.87
2023-03-26T12:14:42.393Z,994.87
2023-03-26T12:15:42.348Z,994.85
2023-03-26T12:16:42.431Z,994.85
2023-03-26T12:17:42.382Z,994.85
2023-03-26T12:18:42.351Z,994.84
2023-03-26T12:19:42.339Z,994.83
2023-03-26T12:20:42.326Z,994.82
2023-03-26T12:21:42.282Z,994.81
2023-03-26T12:22:43.580Z,994.81
2023-03-26T12:23:42.291Z,994.79
2023-03-26T12:24:42.288Z,994.78
2023-03-26T12:25:42.246Z,994.76
2023-03-26T12:26:42.260Z,994.75
2023-03-26T12:27:42.221Z,994.74